Time;durP1;ratioP1;P1;durP2;ratioP2;P2;SDS_P1;SDS_P2;PMS_P1;PMS_P2;Temp;Humidity;BMP_temperature;BMP_pressure;BME280_temperature;BME280_humidity;BME280_pressure;Samples;Min_cycle;Max_cycle;Signal;HPM_P1;HPM_P2
2023/12/04 00:02:10;;;;;;;35.63;15.20;;;6.90;99.90;;;;;;4955243;28;20023;-81
2023/12/04 00:04:36;;;;;;;37.28;16.27;;;6.90;99.90;;;;;;4973924;28;20054;-83
2023/12/04 00:07:01;;;;;;;39.65;15.93;;;6.90;99.90;;;;;;4956471;28;20522;-82
2023/12/04 00:09:27;;;;;;;39.05;16.63;;;6.90;99.90;;;;;;4958414;28;20015;-82
2023/12/04 00:11:52;;;;;;;38.80;15.52;;;6.90;99.90;;;;;;4953669;28;20023;-82
2023/12/04 00:14:18;;;;;;;38.65;15.95;;;6.80;99.90;;;;;;4950151;28;20024;-82
2023/12/04 00:16:43;;;;;;;40.95;16.35;;;6.90;99.90;;;;;;4958267;28;20038;-82
2023/12/04 00:19:09;;;;;;;36.90;15.52;;;6.90;99.90;;;;;;4973708;28;20034;-81
2023/12/04 00:21:35;;;;;;;42.65;14.90;;;6.80;99.90;;;;;;4957230;28;20023;-82
2023/12/04 00:24:00;;;;;;;43.53;15.25;;;6.90;99.90;;;;;;4955858;28;20050;-82
2023/12/04 00:26:26;;;;;;;39.03;16.52;;;6.90;99.90;;;;;;4969966;28;20020;-82
2023/12/04 00:28:51;;;;;;;37.92;15.63;;;6.90;99.90;;;;;;4958982;28;20046;-82
2023/12/04 00:31:17;;;;;;;42.47;16.85;;;6.90;99.90;;;;;;4971921;28;20481;-82
2023/12/04 00:33:42;;;;;;;51.25;17.52;;;6.90;99.90;;;;;;4959639;28;20109;-81
2023/12/04 00:36:09;;;;;;;44.75;16.40;;;6.90;99.90;;;;;;4951665;28;20023;-82
2023/12/04 00:38:34;;;;;;;42.65;17.45;;;6.90;99.90;;;;;;4968526;28;20038;-82
2023/12/04 00:41:00;;;;;;;45.90;17.02;;;6.90;99.90;;;;;;4955993;28;20027;-82
2023/12/04 00:43:26;;;;;;;37.78;16.83;;;6.90;99.90;;;;;;4956966;28;20478;-82
2023/12/04 00:45:51;;;;;;;46.35;16.98;;;6.90;99.90;;;;;;4956398;28;20069;-82
2023/12/04 00:48:17;;;;;;;44.67;17.38;;;6.90;99.90;;;;;;4952761;28;20047;-81
2023/12/04 00:50:42;;;;;;;40.83;17.13;;;6.90;99.90;;;;;;4954133;28;20120;-82
2023/12/04 00:53:08;;;;;;;47.92;16.88;;;6.90;99.90;;;;;;4954407;28;20130;-82
2023/12/04 00:55:33;;;;;;;44.60;17.38;;;6.90;99.90;;;;;;4969261;28;20035;-82
2023/12/04 00:57:59;;;;;;;49.00;18.20;;;6.90;99.90;;;;;;4956886;28;20023;-82
2023/12/04 01:00:24;;;;;;;46.10;18.60;;;6.90;99.90;;;;;;4955352;28;20031;-82
2023/12/04 01:02:51;;;;;;;49.85;19.35;;;6.80;99.90;;;;;;4951705;28;20023;-81
2023/12/04 01:05:16;;;;;;;54.92;18.83;;;6.80;99.90;;;;;;4955892;28;20096;-82
2023/12/04 01:07:42;;;;;;;60.58;19.45;;;6.80;99.90;;;;;;4958716;28;20043;-82
2023/12/04 01:10:08;;;;;;;49.00;18.48;;;6.80;99.90;;;;;;4957201;28;20524;-81
2023/12/04 01:12:33;;;;;;;44.78;18.27;;;6.80;99.90;;;;;;4971674;28;20513;-82
2023/12/04 01:14:59;;;;;;;55.33;20.23;;;6.80;99.90;;;;;;4950669;28;20062;-82
2023/12/04 01:17:24;;;;;;;55.10;17.83;;;6.80;99.90;;;;;;4953006;28;20477;-84
2023/12/04 01:19:50;;;;;;;46.13;18.15;;;6.80;99.90;;;;;;4974647;28;20065;-81
2023/12/04 01:22:15;;;;;;;48.13;18.83;;;6.80;99.90;;;;;;4954705;28;20027;-82
2023/12/04 01:24:41;;;;;;;46.05;19.40;;;6.80;99.90;;;;;;4954209;28;20027;-81
2023/12/04 01:27:07;;;;;;;51.78;18.77;;;6.80;99.90;;;;;;4952861;28;20026;-82
2023/12/04 01:29:32;;;;;;;50.17;18.35;;;6.80;99.90;;;;;;4952103;28;20254;-82
2023/12/04 01:31:58;;;;;;;45.58;17.13;;;6.80;99.90;;;;;;4953830;28;20481;-82
2023/12/04 01:34:23;;;;;;;47.28;17.88;;;6.80;99.90;;;;;;4955410;28;20016;-82
2023/12/04 01:36:49;;;;;;;41.40;17.98;;;6.80;99.90;;;;;;4969973;28;20093;-82
2023/12/04 01:39:14;;;;;;;41.95;16.95;;;6.80;99.90;;;;;;4951361;28;20119;-81
2023/12/04 01:41:40;;;;;;;42.90;17.00;;;6.80;99.90;;;;;;4968988;28;20122;-83
2023/12/04 01:44:05;;;;;;;38.75;17.17;;;6.80;99.90;;;;;;4956539;28;20023;-84
2023/12/04 01:46:31;;;;;;;46.00;16.00;;;6.80;99.90;;;;;;4971044;28;20083;-85
2023/12/04 01:48:58;;;;;;;39.42;16.27;;;6.80;99.90;;;;;;4971343;28;20066;-85
2023/12/04 01:51:24;;;;;;;37.17;16.02;;;6.80;99.90;;;;;;4956072;28;20017;-85
2023/12/04 01:53:50;;;;;;;37.97;16.13;;;6.80;99.90;;;;;;4952521;28;20019;-84
2023/12/04 01:56:17;;;;;;;32.97;15.60;;;6.80;99.90;;;;;;4955507;28;20027;-83
2023/12/04 01:58:43;;;;;;;34.75;15.20;;;6.80;99.90;;;;;;4956232;28;20086;-82
2023/12/04 02:01:10;;;;;;;33.67;14.35;;;6.80;99.90;;;;;;4950755;29;20019;-85
2023/12/04 02:03:36;;;;;;;41.03;16.48;;;6.80;99.90;;;;;;4953115;28;20110;-83
2023/12/04 02:06:03;;;;;;;36.55;15.27;;;6.80;99.90;;;;;;4950429;28;20090;-84
2023/12/04 02:08:30;;;;;;;43.28;15.85;;;6.80;99.90;;;;;;4952388;28;20016;-85
2023/12/04 02:10:55;;;;;;;37.78;15.02;;;6.80;99.90;;;;;;4949862;28;20022;-85
2023/12/04 02:13:21;;;;;;;33.03;14.02;;;6.80;99.90;;;;;;4967408;28;20019;-85
2023/12/04 02:15:50;;;;;;;40.17;14.40;;;6.80;99.90;;;;;;4970241;28;20461;-84
2023/12/04 02:18:18;;;;;;;35.88;15.27;;;6.80;99.90;;;;;;4955153;28;20039;-84
2023/12/04 02:20:43;;;;;;;36.60;15.63;;;6.80;99.90;;;;;;4957001;28;20024;-85
2023/12/04 02:23:09;;;;;;;39.72;16.25;;;6.80;99.90;;;;;;4953482;28;20104;-84
2023/12/04 02:25:34;;;;;;;32.85;14.80;;;6.80;99.90;;;;;;4955094;28;20026;-85
2023/12/04 02:28:04;;;;;;;30.48;14.30;;;6.80;99.90;;;;;;4967985;28;20030;-85
2023/12/04 02:30:31;;;;;;;33.65;14.20;;;6.80;99.90;;;;;;4947111;28;20023;-85
2023/12/04 02:32:58;;;;;;;31.38;13.20;;;6.80;99.90;;;;;;4956124;28;20095;-85
2023/12/04 02:35:28;;;;;;;32.38;14.35;;;6.80;99.90;;;;;;4967264;28;20050;-82
2023/12/04 02:37:54;;;;;;;32.83;14.40;;;6.80;99.90;;;;;;4956321;28;20011;-83
2023/12/04 02:40:20;;;;;;;29.30;13.15;;;6.80;99.90;;;;;;4953404;28;20452;-84
2023/12/04 02:42:45;;;;;;;31.90;14.23;;;6.80;99.90;;;;;;4953533;28;20122;-81
2023/12/04 02:45:11;;;;;;;24.88;12.73;;;6.80;99.90;;;;;;4969531;28;20016;-83
2023/12/04 02:47:36;;;;;;;36.40;13.63;;;6.80;99.90;;;;;;4950124;28;20115;-81
2023/12/04 02:50:02;;;;;;;35.55;14.48;;;6.80;99.90;;;;;;4956107;28;20031;-82
2023/12/04 02:52:28;;;;;;;29.50;13.00;;;6.80;99.90;;;;;;4951802;28;20023;-81
2023/12/04 02:54:54;;;;;;;35.17;14.07;;;6.80;99.90;;;;;;4950337;28;20027;-82
2023/12/04 02:57:20;;;;;;;27.88;13.30;;;6.80;99.90;;;;;;4951943;28;20031;-82
2023/12/04 02:59:45;;;;;;;26.90;12.48;;;6.80;99.90;;;;;;4951355;28;20100;-82
2023/12/04 03:02:11;;;;;;;25.50;12.63;;;6.80;99.90;;;;;;4952129;28;20023;-82
2023/12/04 03:04:36;;;;;;;28.48;11.95;;;6.80;99.90;;;;;;4949166;28;20031;-82
2023/12/04 03:07:02;;;;;;;28.15;13.90;;;6.80;99.90;;;;;;4951043;28;20096;-81
2023/12/04 03:09:27;;;;;;;26.00;12.35;;;6.80;99.90;;;;;;4949412;28;20031;-83
2023/12/04 03:11:53;;;;;;;26.13;11.95;;;6.80;99.90;;;;;;4946024;28;20490;-82
2023/12/04 03:14:19;;;;;;;29.25;12.27;;;6.80;99.90;;;;;;4948379;28;20098;-83
2023/12/04 03:16:44;;;;;;;29.25;11.63;;;6.80;99.90;;;;;;4952054;28;20082;-82
2023/12/04 03:19:10;;;;;;;25.63;12.73;;;6.70;99.90;;;;;;4965738;28;20584;-82
2023/12/04 03:21:35;;;;;;;26.42;12.05;;;6.70;99.90;;;;;;4952771;28;20154;-81
2023/12/04 03:24:01;;;;;;;24.45;11.55;;;6.70;99.90;;;;;;4953776;28;20035;-82
2023/12/04 03:26:26;;;;;;;28.00;12.40;;;6.70;99.90;;;;;;4964393;28;20031;-82
2023/12/04 03:28:52;;;;;;;24.15;11.02;;;6.70;99.90;;;;;;4968297;28;20027;-83
2023/12/04 03:31:17;;;;;;;27.50;11.48;;;6.70;99.90;;;;;;4949118;28;20020;-83
2023/12/04 03:33:43;;;;;;;28.45;12.65;;;6.70;99.90;;;;;;4952657;28;20027;-82
2023/12/04 03:36:08;;;;;;;21.65;10.93;;;6.80;99.90;;;;;;4968603;28;20019;-85
2023/12/04 03:38:34;;;;;;;29.33;12.65;;;6.70;99.90;;;;;;4952164;28;20029;-81
2023/12/04 03:41:00;;;;;;;28.85;12.13;;;6.70;99.90;;;;;;4968234;28;20018;-82
2023/12/04 03:43:25;;;;;;;29.50;11.27;;;6.70;99.90;;;;;;4950857;28;20015;-81
2023/12/04 03:45:51;;;;;;;25.55;12.18;;;6.70;99.90;;;;;;4954403;28;20073;-82
2023/12/04 03:48:16;;;;;;;24.55;11.27;;;6.70;99.90;;;;;;4952392;28;20034;-81
2023/12/04 03:50:42;;;;;;;25.52;11.75;;;6.70;99.90;;;;;;4950952;28;20046;-81
2023/12/04 03:53:07;;;;;;;26.13;11.35;;;6.70;99.90;;;;;;4951325;28;20486;-82
2023/12/04 03:55:33;;;;;;;28.75;12.88;;;6.80;99.90;;;;;;4949812;28;20489;-82
2023/12/04 03:57:59;;;;;;;23.65;11.48;;;6.70;99.90;;;;;;4952300;28;20119;-83
2023/12/04 04:00:24;;;;;;;23.63;11.55;;;6.70;99.90;;;;;;4946931;28;20021;-82
2023/12/04 04:02:50;;;;;;;25.60;11.23;;;6.70;99.90;;;;;;4945573;28;20028;-83
2023/12/04 04:05:16;;;;;;;24.83;11.60;;;6.70;99.90;;;;;;4967314;28;20569;-81
2023/12/04 04:07:41;;;;;;;25.52;10.32;;;6.70;99.90;;;;;;4946858;28;20033;-82
2023/12/04 04:10:08;;;;;;;25.30;11.73;;;6.70;99.90;;;;;;4955452;28;20099;-82
2023/12/04 04:12:34;;;;;;;26.80;11.30;;;6.70;99.90;;;;;;4948974;28;20039;-81
2023/12/04 04:14:59;;;;;;;25.40;11.43;;;6.70;99.90;;;;;;4949742;28;20027;-82
2023/12/04 04:17:26;;;;;;;24.00;12.00;;;6.70;99.90;;;;;;4950734;28;20035;-83
2023/12/04 04:19:52;;;;;;;21.38;10.35;;;6.70;99.90;;;;;;4947332;28;20533;-83
2023/12/04 04:22:18;;;;;;;25.67;11.98;;;6.70;99.90;;;;;;4951329;28;20022;-82
2023/12/04 04:24:44;;;;;;;22.73;10.80;;;6.70;99.90;;;;;;4969315;28;20031;-82
2023/12/04 04:27:09;;;;;;;22.98;10.55;;;6.70;99.90;;;;;;4956427;28;20508;-83
2023/12/04 04:29:35;;;;;;;23.60;11.48;;;6.70;99.90;;;;;;4952545;28;20031;-82
2023/12/04 04:32:00;;;;;;;27.23;11.98;;;6.70;99.90;;;;;;4969214;28;20036;-83
2023/12/04 04:34:26;;;;;;;23.58;11.60;;;6.70;99.90;;;;;;4953435;28;20059;-82
2023/12/04 04:36:51;;;;;;;24.98;12.13;;;6.70;99.90;;;;;;4955281;28;20118;-82
2023/12/04 04:39:17;;;;;;;23.40;10.70;;;6.70;99.90;;;;;;4964574;28;20080;-82
2023/12/04 04:41:44;;;;;;;24.77;11.07;;;6.70;99.90;;;;;;4968927;28;20030;-81
2023/12/04 04:44:09;;;;;;;26.85;12.48;;;6.70;99.90;;;;;;4953500;28;20081;-81
2023/12/04 04:46:35;;;;;;;25.45;11.48;;;6.70;99.90;;;;;;4946847;28;20114;-81
2023/12/04 04:49:01;;;;;;;23.92;10.68;;;6.70;99.90;;;;;;4954052;28;20171;-82
2023/12/04 04:51:28;;;;;;;26.90;11.90;;;6.70;99.90;;;;;;4953638;28;20020;-82
2023/12/04 04:53:53;;;;;;;29.45;12.68;;;6.70;99.90;;;;;;4955094;28;20464;-82
2023/12/04 04:56:19;;;;;;;26.63;11.88;;;6.70;99.90;;;;;;4952852;28;20030;-83
2023/12/04 04:58:44;;;;;;;25.63;12.35;;;6.70;99.90;;;;;;4953413;28;20082;-82
2023/12/04 05:01:10;;;;;;;29.45;13.02;;;6.70;99.90;;;;;;4952857;28;20019;-82
2023/12/04 05:03:35;;;;;;;30.35;12.82;;;6.70;99.90;;;;;;4948364;28;20031;-82
2023/12/04 05:06:01;;;;;;;28.75;13.63;;;6.70;99.90;;;;;;4953570;28;20100;-83
2023/12/04 05:08:26;;;;;;;30.13;12.77;;;6.70;99.90;;;;;;4953528;28;20023;-83
2023/12/04 05:10:52;;;;;;;30.02;13.50;;;6.70;99.90;;;;;;4968134;28;20027;-82
2023/12/04 05:13:17;;;;;;;28.88;12.70;;;6.70;99.90;;;;;;4965500;28;20028;-83
2023/12/04 05:15:43;;;;;;;30.55;14.13;;;6.70;99.90;;;;;;4951660;28;20509;-83
2023/12/04 05:18:09;;;;;;;40.80;14.05;;;6.70;99.90;;;;;;4950691;28;20090;-82
2023/12/04 05:20:34;;;;;;;29.65;13.38;;;6.70;99.90;;;;;;4951601;28;20051;-82
2023/12/04 05:23:00;;;;;;;31.70;14.15;;;6.70;99.90;;;;;;4952528;28;20058;-82
2023/12/04 05:25:26;;;;;;;33.42;13.55;;;6.60;99.90;;;;;;4955040;28;20016;-82
2023/12/04 05:27:51;;;;;;;30.13;13.63;;;6.70;99.90;;;;;;4969176;28;20663;-81
2023/12/04 05:30:17;;;;;;;33.13;14.73;;;6.60;99.90;;;;;;4951659;28;20034;-82
2023/12/04 05:32:43;;;;;;;30.85;13.48;;;6.70;99.90;;;;;;4952587;28;20064;-82
2023/12/04 05:35:08;;;;;;;30.38;13.70;;;6.70;99.90;;;;;;4953435;28;20034;-83
2023/12/04 05:37:34;;;;;;;32.28;13.50;;;6.60;99.90;;;;;;4950889;28;20031;-83
2023/12/04 05:39:59;;;;;;;28.67;14.05;;;6.60;99.90;;;;;;4968573;28;20083;-81
2023/12/04 05:42:25;;;;;;;39.70;15.65;;;6.60;99.90;;;;;;4950684;28;20098;-82
2023/12/04 05:44:55;;;;;;;38.38;15.25;;;6.70;99.90;;;;;;4964499;28;20027;-84
2023/12/04 05:47:20;;;;;;;35.60;15.13;;;6.60;99.90;;;;;;4949092;28;20038;-82
2023/12/04 05:49:46;;;;;;;40.00;15.00;;;6.60;99.90;;;;;;4953167;28;20509;-82
2023/12/04 05:52:11;;;;;;;29.02;13.25;;;6.60;99.90;;;;;;4951949;28;20417;-82
2023/12/04 05:54:37;;;;;;;38.00;15.23;;;6.60;99.90;;;;;;4943919;29;20054;-82
2023/12/04 05:57:03;;;;;;;31.92;14.82;;;6.60;99.90;;;;;;4951613;28;20106;-82
2023/12/04 05:59:28;;;;;;;37.80;15.50;;;6.60;99.90;;;;;;4950967;28;20035;-81
2023/12/04 06:01:54;;;;;;;33.33;13.93;;;6.60;99.90;;;;;;4953676;28;20027;-82
2023/12/04 06:04:19;;;;;;;35.28;14.98;;;6.60;99.90;;;;;;4965530;28;20106;-82
2023/12/04 06:06:45;;;;;;;37.22;15.90;;;6.60;99.90;;;;;;4947023;28;20060;-81
2023/12/04 06:09:10;;;;;;;34.03;14.70;;;6.60;99.90;;;;;;4965308;28;20035;-82
2023/12/04 06:11:36;;;;;;;32.17;13.60;;;6.60;99.90;;;;;;4948681;28;20023;-82
2023/12/04 06:14:01;;;;;;;29.90;13.60;;;6.60;99.90;;;;;;4952610;28;20030;-81
2023/12/04 06:16:27;;;;;;;34.13;14.52;;;6.60;99.90;;;;;;4952642;28;20015;-82
2023/12/04 06:18:52;;;;;;;32.65;13.65;;;6.60;99.90;;;;;;4948043;28;20020;-82
2023/12/04 06:21:18;;;;;;;36.80;14.45;;;6.60;99.90;;;;;;4966124;28;20023;-85
2023/12/04 06:23:44;;;;;;;35.22;14.38;;;6.60;99.90;;;;;;4951484;28;20098;-82
2023/12/04 06:26:12;;;;;;;26.65;12.73;;;6.60;99.90;;;;;;4954878;28;20124;-82
2023/12/04 06:28:38;;;;;;;30.02;12.48;;;6.60;99.90;;;;;;4951424;28;20106;-82
2023/12/04 06:31:04;;;;;;;30.63;14.10;;;6.60;99.90;;;;;;4946788;28;20123;-82
2023/12/04 06:33:29;;;;;;;31.38;13.98;;;6.60;99.90;;;;;;4964240;28;20110;-81
2023/12/04 06:35:55;;;;;;;36.42;13.68;;;6.60;99.90;;;;;;4950254;28;20031;-82
2023/12/04 06:38:24;;;;;;;28.80;13.30;;;6.60;99.90;;;;;;4950100;28;20023;-82
2023/12/04 06:40:50;;;;;;;32.50;14.00;;;6.60;99.90;;;;;;4951155;28;20031;-82
2023/12/04 06:43:18;;;;;;;33.97;13.60;;;6.60;99.90;;;;;;4951916;28;20026;-82
2023/12/04 06:45:45;;;;;;;31.42;13.63;;;6.60;99.90;;;;;;4946477;28;20027;-82
2023/12/04 06:48:13;;;;;;;29.42;12.35;;;6.60;99.90;;;;;;4967052;28;20030;-82
2023/12/04 06:50:40;;;;;;;26.80;13.13;;;6.60;99.90;;;;;;4945971;29;20088;-82
2023/12/04 06:53:06;;;;;;;26.50;12.40;;;6.60;99.90;;;;;;4947773;28;20038;-82
2023/12/04 06:55:31;;;;;;;30.23;12.88;;;6.60;99.90;;;;;;4947759;28;20497;-82
2023/12/04 06:57:57;;;;;;;30.88;13.25;;;6.60;99.90;;;;;;4945641;28;20106;-85
2023/12/04 07:00:22;;;;;;;30.27;12.77;;;6.60;99.90;;;;;;4951743;28;20042;-82
2023/12/04 07:02:48;;;;;;;26.38;13.32;;;6.60;99.90;;;;;;4951784;28;20122;-82
2023/12/04 07:05:14;;;;;;;29.95;12.68;;;6.60;99.90;;;;;;4949182;28;20024;-82
2023/12/04 07:07:39;;;;;;;37.80;14.43;;;6.60;99.90;;;;;;4940386;28;20044;-82
2023/12/04 07:10:05;;;;;;;30.98;12.95;;;6.60;99.90;;;;;;4958778;28;20105;-82
2023/12/04 07:12:31;;;;;;;34.63;14.70;;;6.60;99.90;;;;;;4949293;28;20501;-82
2023/12/04 07:14:56;;;;;;;36.70;13.13;;;6.60;99.90;;;;;;4948957;28;20117;-83
2023/12/04 07:17:22;;;;;;;30.38;12.85;;;6.60;99.90;;;;;;4949129;28;20154;-82
2023/12/04 07:19:48;;;;;;;31.10;14.02;;;6.60;99.90;;;;;;4963697;28;20074;-82
2023/12/04 07:22:13;;;;;;;34.83;13.57;;;6.60;99.90;;;;;;4958027;28;20098;-81
2023/12/04 07:24:39;;;;;;;28.98;14.30;;;6.60;99.90;;;;;;4946917;28;20024;-82
2023/12/04 07:27:05;;;;;;;33.88;14.32;;;6.60;99.90;;;;;;4950851;28;20023;-81
2023/12/04 07:29:30;;;;;;;31.63;13.75;;;6.60;99.90;;;;;;4948238;28;20023;-82
2023/12/04 07:31:56;;;;;;;33.95;15.45;;;6.60;99.90;;;;;;4939419;28;20031;-82
2023/12/04 07:34:21;;;;;;;37.78;14.60;;;6.60;99.90;;;;;;4945965;28;20393;-82
2023/12/04 07:36:48;;;;;;;37.78;14.85;;;6.50;99.90;;;;;;4961083;28;20906;-82
2023/12/04 07:39:14;;;;;;;33.30;14.60;;;6.50;99.90;;;;;;4948825;28;20106;-82
2023/12/04 07:41:40;;;;;;;31.30;14.82;;;6.50;99.90;;;;;;4948357;28;20023;-82
2023/12/04 07:44:06;;;;;;;38.67;14.73;;;6.50;99.90;;;;;;4944043;28;20035;-82
2023/12/04 07:46:31;;;;;;;40.05;15.15;;;6.50;99.90;;;;;;4942022;28;20533;-82
2023/12/04 07:48:57;;;;;;;31.77;13.98;;;6.50;99.90;;;;;;4957726;28;20075;-83
2023/12/04 07:51:23;;;;;;;35.30;15.32;;;6.50;99.90;;;;;;4949885;28;20026;-82
2023/12/04 07:53:48;;;;;;;32.83;14.82;;;6.50;99.90;;;;;;4945545;28;20038;-81
2023/12/04 07:56:14;;;;;;;37.40;14.98;;;6.50;99.90;;;;;;4947906;28;20629;-81
2023/12/04 07:58:40;;;;;;;36.88;14.30;;;6.50;99.90;;;;;;4947619;28;20387;-81
2023/12/04 08:01:05;;;;;;;32.63;14.13;;;6.50;99.90;;;;;;4950412;28;20035;-81
2023/12/04 08:03:31;;;;;;;35.55;15.23;;;6.50;99.90;;;;;;4969099;28;20398;-82
2023/12/04 08:05:58;;;;;;;35.00;14.30;;;6.50;99.90;;;;;;4942867;28;20727;-81
2023/12/04 08:08:24;;;;;;;39.92;15.10;;;6.50;99.90;;;;;;4946240;28;20120;-82
2023/12/04 08:10:50;;;;;;;32.20;15.05;;;6.50;99.90;;;;;;4960673;28;20765;-82
2023/12/04 08:13:16;;;;;;;38.50;15.18;;;6.50;99.90;;;;;;4963048;28;20064;-85
2023/12/04 08:15:42;;;;;;;37.90;15.02;;;6.50;99.90;;;;;;4950473;28;20380;-82
2023/12/04 08:18:07;;;;;;;39.75;16.20;;;6.50;99.90;;;;;;4947903;28;20126;-81
2023/12/04 08:20:33;;;;;;;38.72;15.52;;;6.50;99.90;;;;;;4948928;28;20114;-81
2023/12/04 08:22:58;;;;;;;36.63;15.50;;;6.50;99.90;;;;;;4948824;28;20059;-81
2023/12/04 08:25:24;;;;;;;34.47;14.85;;;6.60;99.90;;;;;;4945142;28;20114;-81
2023/12/04 08:27:50;;;;;;;37.70;14.80;;;6.60;99.90;;;;;;4952944;28;20019;-82
2023/12/04 08:30:16;;;;;;;42.28;16.45;;;6.50;99.90;;;;;;4965040;28;20134;-82
2023/12/04 08:32:42;;;;;;;34.20;15.38;;;6.50;99.90;;;;;;4960671;28;20750;-82
2023/12/04 08:35:07;;;;;;;38.17;15.82;;;6.60;99.90;;;;;;4962037;28;20031;-82
2023/12/04 08:37:33;;;;;;;39.05;15.75;;;6.50;99.90;;;;;;4963145;28;20039;-84
2023/12/04 08:39:58;;;;;;;39.92;16.95;;;6.50;99.90;;;;;;4962744;28;20027;-82
2023/12/04 08:42:24;;;;;;;34.78;15.68;;;6.50;99.90;;;;;;4946899;28;20111;-81
2023/12/04 08:44:50;;;;;;;39.15;16.33;;;6.50;99.90;;;;;;4943398;28;20078;-82
2023/12/04 08:47:15;;;;;;;38.97;16.63;;;6.50;99.90;;;;;;4942378;28;20140;-82
2023/12/04 08:49:41;;;;;;;38.83;16.90;;;6.50;99.90;;;;;;4948100;28;20069;-82
2023/12/04 08:52:07;;;;;;;36.63;16.13;;;6.50;99.90;;;;;;4962218;28;20397;-83
2023/12/04 08:54:33;;;;;;;42.83;17.08;;;6.50;99.90;;;;;;4951081;28;20035;-81
2023/12/04 08:56:58;;;;;;;37.35;15.48;;;6.60;99.90;;;;;;4947972;28;20119;-82
2023/12/04 08:59:24;;;;;;;44.75;16.80;;;6.60;99.90;;;;;;4946921;28;20470;-82
2023/12/04 09:01:49;;;;;;;37.28;17.08;;;6.50;99.90;;;;;;4960806;28;20019;-82
2023/12/04 09:04:15;;;;;;;41.97;17.05;;;6.50;99.90;;;;;;4972939;28;20027;-81
2023/12/04 09:06:40;;;;;;;48.25;16.70;;;6.50;99.90;;;;;;4957064;28;20039;-82
2023/12/04 09:09:06;;;;;;;42.05;15.68;;;6.60;99.90;;;;;;4956125;28;20019;-82
2023/12/04 09:11:32;;;;;;;48.03;18.10;;;6.50;99.90;;;;;;4957669;28;20050;-82
2023/12/04 09:13:57;;;;;;;41.53;16.85;;;6.50;99.90;;;;;;4958371;28;20065;-82
2023/12/04 09:16:23;;;;;;;40.90;17.38;;;6.50;99.90;;;;;;4948559;28;20083;-82
2023/12/04 09:18:49;;;;;;;46.53;18.10;;;6.50;99.90;;;;;;4964378;28;20031;-82
2023/12/04 09:21:15;;;;;;;46.13;17.75;;;6.50;99.90;;;;;;4963542;28;20038;-82
2023/12/04 09:23:40;;;;;;;44.78;19.63;;;6.50;99.90;;;;;;4946907;28;20557;-82
2023/12/04 09:26:06;;;;;;;43.38;19.50;;;6.50;99.90;;;;;;4944255;28;20030;-82
2023/12/04 09:28:31;;;;;;;49.60;18.75;;;6.50;99.90;;;;;;4943853;28;20019;-81
2023/12/04 09:30:57;;;;;;;41.25;18.00;;;6.50;99.90;;;;;;4947953;28;20050;-82
2023/12/04 09:33:22;;;;;;;43.38;18.88;;;6.50;99.90;;;;;;4946670;28;20106;-81
2023/12/04 09:35:48;;;;;;;52.95;20.35;;;6.40;99.90;;;;;;4946213;28;20038;-82
2023/12/04 09:38:13;;;;;;;53.58;19.92;;;6.40;99.90;;;;;;4946712;28;20031;-82
2023/12/04 09:40:39;;;;;;;49.13;19.73;;;6.40;99.90;;;;;;4946113;28;20030;-82
2023/12/04 09:43:06;;;;;;;48.33;20.30;;;6.40;99.90;;;;;;4950614;28;20043;-82
2023/12/04 09:45:33;;;;;;;49.65;19.40;;;6.40;99.90;;;;;;4967299;28;20120;-82
2023/12/04 09:47:59;;;;;;;54.88;20.42;;;6.40;99.90;;;;;;4948104;28;20019;-82
2023/12/04 09:50:25;;;;;;;49.67;19.35;;;6.40;99.90;;;;;;4944353;28;20028;-83
2023/12/04 09:52:52;;;;;;;42.88;18.80;;;6.40;99.90;;;;;;4945139;28;20034;-83
2023/12/04 09:55:18;;;;;;;41.65;18.27;;;6.40;99.90;;;;;;4956317;28;20023;-83
2023/12/04 09:57:49;;;;;;;56.15;20.35;;;6.40;99.90;;;;;;4952902;28;20030;-82
2023/12/04 10:00:15;;;;;;;53.65;20.15;;;6.40;99.90;;;;;;4954756;28;20025;-83
2023/12/04 10:02:41;;;;;;;47.15;18.20;;;6.40;99.90;;;;;;4951004;28;20031;-83
2023/12/04 10:05:09;;;;;;;56.15;20.42;;;6.40;99.90;;;;;;4944279;28;20741;-82
2023/12/04 10:07:36;;;;;;;56.22;20.23;;;6.50;99.90;;;;;;4948157;28;20591;-83
2023/12/04 10:10:04;;;;;;;46.13;17.60;;;6.40;99.90;;;;;;4949692;28;20030;-82
2023/12/04 10:12:30;;;;;;;46.22;19.02;;;6.40;99.90;;;;;;4950581;28;20156;-83
2023/12/04 10:15:10;;;;;;;57.85;18.92;;;6.40;99.90;;;;;;4945347;28;20110;-83
2023/12/04 10:17:40;;;;;;;49.10;18.23;;;6.40;99.90;;;;;;4958948;28;20091;-82
2023/12/04 10:20:20;;;;;;;43.58;17.92;;;6.40;99.90;;;;;;4947643;28;20031;-82
2023/12/04 10:22:56;;;;;;;;;;;6.40;99.90;;;;;;4965331;28;20031;-82
2023/12/04 10:25:24;;;;;;;47.22;18.65;;;6.40;99.90;;;;;;4961841;28;20466;-82
2023/12/04 10:27:50;;;;;;;47.80;17.95;;;6.40;99.90;;;;;;4943206;28;20030;-82
2023/12/04 10:30:23;;;;;;;56.13;19.00;;;6.40;99.90;;;;;;4949470;28;20023;-82
2023/12/04 10:32:49;;;;;;;48.85;18.40;;;6.40;99.90;;;;;;4953025;28;20134;-82
2023/12/04 10:35:14;;;;;;;49.03;19.02;;;6.40;99.90;;;;;;4961031;28;20572;-82
2023/12/04 10:37:40;;;;;;;48.35;18.85;;;6.40;99.90;;;;;;4967411;28;20041;-82
2023/12/04 10:40:10;;;;;;;48.67;18.10;;;6.40;99.90;;;;;;4940835;28;20574;-83
2023/12/04 10:42:35;;;;;;;53.10;18.67;;;6.40;99.90;;;;;;4970472;28;20633;-83
2023/12/04 10:45:01;;;;;;;46.70;19.58;;;6.40;99.90;;;;;;4956603;28;20027;-83
2023/12/04 10:47:29;;;;;;;48.85;18.88;;;6.40;99.90;;;;;;4965584;28;20050;-83
2023/12/04 10:49:55;;;;;;;47.90;17.20;;;6.40;99.90;;;;;;4945693;28;20035;-83
2023/12/04 10:52:21;;;;;;;55.42;19.88;;;6.40;99.90;;;;;;4946092;28;20032;-83
2023/12/04 10:54:50;;;;;;;50.92;19.10;;;6.40;99.90;;;;;;4951778;28;20019;-82
2023/12/04 10:57:39;;;;;;;44.95;18.80;;;6.40;99.90;;;;;;4945758;28;20379;-83
2023/12/04 11:00:08;;;;;;;52.42;18.80;;;6.40;99.90;;;;;;4946844;28;20103;-85
2023/12/04 11:02:34;;;;;;;51.75;20.05;;;6.40;99.90;;;;;;4964948;28;20023;-81
2023/12/04 11:05:21;;;;;;;54.72;20.00;;;6.40;99.90;;;;;;4938998;28;20012;-81
2023/12/04 11:07:52;;;;;;;47.58;18.67;;;6.40;99.90;;;;;;4965253;28;20027;-81
2023/12/04 11:10:22;;;;;;;50.25;20.63;;;6.40;99.90;;;;;;4952819;28;20034;-81
2023/12/04 11:12:54;;;;;;;48.60;18.70;;;6.50;99.90;;;;;;4944240;28;20038;-81
2023/12/04 11:15:23;;;;;;;49.30;18.67;;;6.50;99.90;;;;;;4944428;28;20482;-81
2023/12/04 11:17:53;;;;;;;47.15;17.65;;;6.50;99.90;;;;;;4937609;28;20146;-81
2023/12/04 11:20:23;;;;;;;45.80;19.27;;;6.50;99.90;;;;;;4949465;28;20035;-81
2023/12/04 11:22:51;;;;;;;45.33;19.73;;;6.50;99.90;;;;;;4955758;28;20117;-80
2023/12/04 11:25:17;;;;;;;46.10;19.17;;;6.50;99.90;;;;;;4967276;28;20031;-81
2023/12/04 11:27:43;;;;;;;53.55;20.00;;;6.50;99.90;;;;;;4946309;28;20031;-81
2023/12/04 11:30:12;;;;;;;49.67;19.27;;;6.50;99.90;;;;;;4940289;28;20118;-81
2023/12/04 11:32:48;;;;;;;46.55;18.60;;;6.50;99.90;;;;;;4970870;28;20560;-82
2023/12/04 11:35:18;;;;;;;56.13;18.42;;;6.50;99.90;;;;;;4947332;28;20035;-81
2023/12/04 11:37:46;;;;;;;46.08;17.88;;;6.50;99.90;;;;;;4967424;28;20039;-81
2023/12/04 11:40:13;;;;;;;50.33;19.67;;;6.50;99.90;;;;;;4946256;28;20042;-81
2023/12/04 11:42:39;;;;;;;53.65;19.88;;;6.50;99.90;;;;;;4943180;28;20105;-83
2023/12/04 11:45:06;;;;;;;48.63;20.05;;;6.50;99.90;;;;;;4948070;28;20749;-81
2023/12/04 11:47:55;;;;;;;50.67;19.42;;;6.50;99.90;;;;;;4952299;28;20371;-81
2023/12/04 11:50:21;;;;;;;51.97;19.15;;;6.60;99.90;;;;;;4958201;28;20046;-82
2023/12/04 11:52:48;;;;;;;52.20;20.88;;;6.60;99.90;;;;;;4947212;28;20451;-81
2023/12/04 11:55:40;;;;;;;52.05;19.60;;;6.50;99.90;;;;;;4942367;28;20035;-81
2023/12/04 11:58:12;;;;;;;60.22;20.15;;;6.50;99.90;;;;;;4950670;28;20030;-81
2023/12/04 12:00:38;;;;;;;45.78;19.67;;;6.50;99.90;;;;;;4953472;28;20812;-81
2023/12/04 12:03:09;;;;;;;50.35;20.63;;;6.50;99.90;;;;;;4945657;28;20103;-80
2023/12/04 12:05:38;;;;;;;54.00;19.50;;;6.50;99.90;;;;;;4942599;28;20042;-82
2023/12/04 12:08:04;;;;;;;56.08;20.88;;;6.50;99.90;;;;;;4945145;28;20019;-81
2023/12/04 12:10:30;;;;;;;62.35;23.20;;;6.50;99.90;;;;;;4947466;28;20032;-82
2023/12/04 12:12:56;;;;;;;61.00;21.05;;;6.50;99.90;;;;;;4964317;28;20034;-82
2023/12/04 12:15:22;;;;;;;57.88;22.55;;;6.50;99.90;;;;;;4946534;28;20438;-80
2023/12/04 12:17:49;;;;;;;52.33;19.52;;;6.50;99.90;;;;;;4944452;28;20034;-81
2023/12/04 12:20:15;;;;;;;56.47;20.48;;;6.50;99.90;;;;;;4938138;28;20031;-82
2023/12/04 12:22:43;;;;;;;52.35;20.63;;;6.50;99.90;;;;;;4967361;28;20046;-83
2023/12/04 12:25:10;;;;;;;53.75;20.08;;;6.50;99.90;;;;;;4952640;28;20038;-81
2023/12/04 12:27:36;;;;;;;52.25;21.30;;;6.50;99.90;;;;;;4949367;28;20038;-81
2023/12/04 12:30:04;;;;;;;55.22;19.92;;;6.50;99.90;;;;;;4941886;28;20040;-85
2023/12/04 12:32:30;;;;;;;53.97;20.35;;;6.40;99.90;;;;;;4946261;28;20506;-83
2023/12/04 12:34:56;;;;;;;53.53;20.38;;;6.40;99.90;;;;;;4955898;28;20034;-84